createdAt,value
2023-02-19T22:02:43.220Z,7.78
2023-02-19T22:05:10.027Z,7.85
2023-02-19T22:07:36.579Z,7.93
2023-02-19T22:10:04.147Z,7.95
2023-02-19T22:12:31.940Z,8.45
2023-02-19T22:14:58.473Z,7.40
2023-02-19T22:17:25.051Z,8.30
2023-02-19T22:19:51.606Z,7.70
2023-02-19T22:22:21.739Z,7.85
2023-02-19T22:24:48.509Z,7.25
2023-02-19T22:27:15.012Z,8.13
2023-02-19T22:29:45.654Z,7.95
2023-02-19T22:32:12.330Z,8.20
2023-02-19T22:34:40.428Z,7.43
2023-02-19T22:37:07.046Z,7.95
2023-02-19T22:39:33.663Z,7.18
2023-02-19T22:42:00.440Z,6.95
2023-02-19T22:44:27.057Z,7.60
2023-02-19T22:46:55.887Z,6.85
2023-02-19T22:49:23.605Z,7.75
2023-02-19T22:52:06.014Z,8.38
2023-02-19T22:54:32.606Z,6.78
2023-02-19T22:56:59.155Z,7.13
2023-02-19T22:59:26.880Z,8.18
2023-02-19T23:01:53.689Z,7.65
2023-02-19T23:04:22.628Z,7.13
2023-02-19T23:06:52.172Z,8.13
2023-02-19T23:09:28.710Z,7.65
2023-02-19T23:12:03.738Z,8.20
2023-02-19T23:14:30.332Z,8.77
2023-02-19T23:16:56.956Z,9.15
2023-02-19T23:19:23.914Z,8.25
2023-02-19T23:21:50.928Z,9.38
2023-02-19T23:24:17.741Z,10.80
2023-02-19T23:26:49.573Z,9.43
2023-02-19T23:29:25.625Z,9.23
2023-02-19T23:31:53.034Z,8.00
2023-02-19T23:34:20.396Z,9.43
2023-02-19T23:36:49.314Z,9.52
2023-02-19T23:39:21.737Z,8.90
2023-02-19T23:41:50.976Z,9.02
2023-02-19T23:44:18.135Z,9.07
2023-02-19T23:46:44.877Z,10.25
2023-02-19T23:49:11.585Z,9.18
2023-02-19T23:51:38.127Z,10.35
2023-02-19T23:54:05.298Z,9.32
2023-02-19T23:56:32.524Z,8.45
2023-02-19T23:58:59.258Z,9.25
